• Join FlightAware (Why Join?)
  • Login
  • US Flag 
09:01AM EDT


 

Airport Tracker/Info


-or-


 

Live Flight TrackerFlight Track Log ✈ FLG3757 ✈ 08-Jul-2014 ✈ KBGM - KDTW

Flight Track Log - Related Links

Times and Time Zones

All times are in EDT time to prevent confusion due to time zone crossing. See the FLG3757 flight status page for this flight to view local times or setup timezone preferences in your user account.

Time Position Orientation Groundspeed Altitude Reporting Facility
EDT Latitude Longitude Course Direction KTS MPH feet Rate Location/Type
06:17AM 42.1589 -76.0750 294° West 251 289 6,300  Level New York Center
06:18AM 42.1881 -76.1794 291° West 266 306 6,300  Level Cleveland Center
06:19AM 42.2164 -76.2672 294° West 258 297 6,300  Level Cleveland Center
06:20AM 42.2469 -76.3633 293° West 274 315 6,300  Level Cleveland Center
06:21AM 42.2744 -76.4647 290° West 290 334 6,300  Level Cleveland Center
06:22AM 42.3493 -76.5145 294° West  Level FlightAware Approximate
06:22AM 42.3464 -76.6644 296° West 359 413 6,300  Level Cleveland Center
06:23AM 42.3814 -76.7833 292° West 350 403 17,200 6,480 Climbing Cleveland Center
06:24AM 42.4169 -76.8986 293° West 339 390 19,500 1,500 Climbing Cleveland Center
06:25AM 42.4511 -77.0119 292° West 326 375 20,300 660 Climbing Cleveland Center
06:26AM 42.4858 -77.1375 291° West 352 405 20,900 540 Climbing Cleveland Center
06:27AM 42.4950 -77.2750 275° West 360 414 21,500 540 Climbing Cleveland Center
06:29AM 42.5050 -77.4161 276° West 371 427 22,100 600 Climbing Cleveland Center
06:30AM 42.5169 -77.5775 276° West 380 437 22,800 600 Climbing Cleveland Center
06:31AM 42.5275 -77.7228 276° West 384 442 23,400 540 Climbing Cleveland Center
06:32AM 42.5372 -77.8567 276° West 384 442 24,000 540 Climbing Cleveland Center
06:33AM 42.5478 -78.0019 276° West 384 442 24,600 540 Climbing Cleveland Center
06:34AM 42.5569 -78.1456 275° West 384 442 25,200 540 Climbing Cleveland Center
06:35AM 42.5664 -78.2886 275° West 383 441 25,800 360 Climbing Cleveland Center
06:36AM 42.5767 -78.4311 276° West 382 440 26,000 60 Climbing Cleveland Center
06:37AM 42.5861 -78.5794 275° West 396 456 26,000  Level Cleveland Center
06:38AM 42.5972 -78.7597 275° West 400 460 26,000  Level Cleveland Center
06:39AM 42.6058 -78.9097 275° West 400 460 26,000  Level Cleveland Center
06:40AM 42.6156 -79.0611 275° West 402 463 26,000  Level Cleveland Center
06:41AM 42.6236 -79.2125 274° West 402 463 26,000  Level Cleveland Center
06:42AM 42.6333 -79.3625 275° West 402 463 26,000  Level Cleveland Center
06:43AM 42.6358 -79.5128 271° West 401 461 26,000  Level Cleveland Center
06:44AM 42.6317 -79.6642 268° West 400 460 26,000  Level Cleveland Center
06:45AM 42.6269 -79.8136 268° West 400 460 26,000  Level Cleveland Center
06:46AM 42.6219 -79.9639 267° West 400 460 26,000  Level Cleveland Center
06:47AM 42.6153 -80.1169 267° West 400 460 26,000  Level Cleveland Center
06:48AM 42.6089 -80.2950 267° West 401 461 26,000  Level Cleveland Center
06:49AM 42.6039 -80.4483 268° West 402 463 26,000  Level Cleveland Center
06:50AM 42.5978 -80.6022 267° West 403 464 26,000  Level Cleveland Center
06:51AM 42.5939 -80.7586 268° West 408 470 26,000 -660 Level Cleveland Center
06:52AM 42.5872 -80.9144 267° West 411 473 24,700 -1,140 Descending Cleveland Center
06:53AM 42.5803 -81.0717 267° West 414 476 23,700 -1,020 Descending Cleveland Center
06:54AM 42.5742 -81.2208 267° West 401 461 22,700 -840 Descending Cleveland Center
06:55AM 42.5672 -81.3692 266° West 397 457 22,000 -360 Descending Cleveland Center
06:56AM 42.5611 -81.5156 267° West 391 450 22,000  Level Cleveland Center
06:57AM 42.5536 -81.6625 266° West 389 448 22,000  Level Cleveland Center
06:58AM 42.5472 -81.8122 267° West 389 448 22,000 -600 Level Cleveland Center
06:59AM 42.5400 -81.9594 266° West 389 448 20,800 -1,800 Descending Cleveland Center
07:00AM 42.5322 -82.1022 266° West 383 441 18,400 -2,700 Descending Cleveland Center
07:01AM 42.5244 -82.2622 266° West 358 412 15,300 -3,000 Descending Cleveland Center
07:02AM 42.5217 -82.3164 266° West 346 398 14,200 -2,700 Descending Cleveland Center
07:02AM 42.5197 -82.3444 265° West 345 397 13,700 -2,340 Descending Cleveland Center
07:02AM 42.5172 -82.3906 266° West 346 398 12,700 -1,800 Descending Cleveland Center
07:03AM 42.5136 -82.4653 266° West 316 364 11,900 -840 Descending Cleveland Center
07:03AM 42.5114 -82.5064 266° West 315 362 11,900 -240 Level Cleveland Center
07:04AM 42.5003 -82.5653 256° West 257 296 11,700 -600 Descending Cleveland Center
07:04AM 42.4900 -82.5989 247° West 269 310 11,300 -1,020 Descending Cleveland Center
07:05AM 42.4689 -82.6547 243° Southwest 256 295 10,700 -1,020 Descending Cleveland Center
07:05AM 42.4594 -82.6831 246° West 256 295 10,300 -1,020 Descending Cleveland Center
07:06AM 42.4369 -82.7467 244° Southwest 252 290 9,600 -1,020 Descending Cleveland Center
07:06AM 42.4283 -82.7692 243° Southwest 255 293 9,300 -1,140 Descending Cleveland Center
07:07AM 42.4106 -82.8506 254° West 262 302 8,400 -1,020 Descending Cleveland Center
07:07AM 42.4111 -82.8631 273° West 258 297 8,300 -900 Descending Cleveland Center
07:08AM 42.4106 -82.9353 269° West 243 280 7,600 -1,020 Descending Cleveland Center
07:08AM 42.4114 -82.9533 274° West 249 287 7,300 -1,320 Descending Cleveland Center
07:09AM 42.4103 -83.0256 269° West 235 270 6,300 -1,260 Descending Cleveland Center
07:09AM 42.4081 -83.0581 265° West 240 276 6,000 -1,020 Descending Cleveland Center
07:10AM 42.3975 -83.1117 255° West 230 265 5,300 -1,380 Descending Cleveland Center
07:10AM 42.3914 -83.1439 256° West 237 273 4,600 -1,920 Descending Cleveland Center
07:11AM 42.3653 -83.2031 239° Southwest 243 280 3,200 -1,560 Descending Cleveland Center
07:11AM 42.3575 -83.2239 243° Southwest 241 277 3,000 -300 Descending Cleveland Center
07:12AM 42.3256 -83.2569 217° Southwest 165 190 2,900 -300 Descending Cleveland Center
07:12AM 42.3169 -83.2617 202° Southwest 191 220 2,700 -840 Descending Cleveland Center
07:13AM 42.2858 -83.2853 209° Southwest 162 186 2,100 -840 Descending Cleveland Center
07:13AM 42.2778 -83.2917 210° Southwest 170 196 1,900 -720 Descending Cleveland Center
07:14AM 42.2503 -83.3114 208° Southwest 117 135 1,300 -720 Descending Cleveland Center
07:15AM 42.2464 -83.3133 200° South 140 161 1,200 -420 Descending Cleveland Center
07:16AM 42.2111 -83.3417 211° Southwest 135 155 800 -420 Descending Cleveland Center
07:18AM 42.2000 -83.3500 236° Southwest  Level FlightAware Approximate
07:25AM 42.2124 -83.3534 236° Southwest  Level Estimated